Item Display Status Serial CT Sensor

Mooring Depth: 1 m

 

Deployed Sensor

  • Serial Number: 12876
  • NDBC Property Number: 39249
  • Start Date: 4/17/2020 (11:50:41 Z)
  • End Date: 3/20/2023 (21:25:00 Z)
Water Temperature [°C]     6 entries per hour
Showing data from 8/29/2020 (07:50:00 Z) to 8/28/2020 (00:00:01 Z)
Previous Next [ Day | 3-Days | 7-Days ]
First Last
Prev [ Day | 3-Days | 7-Days ] Next
First Last

Start Time:     :
End Time:     :     
Time (in GMT) :00 :50 :40 :30 :20 :10
Previous Next [ Day | 3-Days | 7-Days ]
First Last
Prev [ Day | 3-Days | 7-Days ] Next
First Last


123 => good data
MM => data is determined as missing
-- => data not received/configured
Back to Top Back to Top
8/29/2020 08:00 to 7:10 -- 19.381 19.406 19.388 19.403 19.418
8/29/2020 07:00 to 6:10 19.406 19.391 19.380 19.389 19.373 19.374
8/29/2020 06:00 to 5:10 19.372 19.391 19.376 19.402 19.386 19.369
8/29/2020 05:00 to 4:10 19.387 19.386 19.401 19.405 19.410 19.430
8/29/2020 04:00 to 3:10 19.434 19.440 19.443 19.438 19.431 19.434
8/29/2020 03:00 to 2:10 19.443 19.438 19.420 19.414 19.434 19.432
8/29/2020 02:00 to 1:10 19.447 19.445 19.445 19.467 19.467 19.446
8/29/2020 01:00 to 0:10 19.477 19.482 19.497 19.501 19.506 19.532
8/29/2020 00:00 to 23:10 19.535 19.506 19.530 19.518 19.499 19.534
8/28/2020 23:00 to 22:10 19.516 19.536 19.519 19.533 19.571 19.563
8/28/2020 22:00 to 21:10 19.587 19.665 19.639 19.585 19.569 19.551
8/28/2020 21:00 to 20:10 19.582 19.582 19.593 19.600 19.618 19.550
8/28/2020 20:00 to 19:10 19.634 19.590 19.526 19.546 19.529 19.558
8/28/2020 19:00 to 18:10 19.495 19.481 19.480 19.511 19.452 19.467
8/28/2020 18:00 to 17:10 19.449 19.427 19.446 19.490 19.472 19.433
8/28/2020 17:00 to 16:10 19.458 19.423 19.435 19.455 19.430 19.438
8/28/2020 16:00 to 15:10 19.426 19.420 19.410 19.409 19.400 19.405
8/28/2020 15:00 to 14:10 19.376 19.389 19.385 19.384 19.391 19.387
8/28/2020 14:00 to 13:10 19.387 19.369 19.386 19.388 19.397 19.408
8/28/2020 13:00 to 12:10 19.422 19.430 19.435 19.432 19.442 19.441
8/28/2020 12:00 to 11:10 19.443 19.442 19.457 19.443 19.457 19.460
8/28/2020 11:00 to 10:10 19.455 19.465 19.460 19.459 19.467 19.459
8/28/2020 10:00 to 9:10 19.472 19.484 19.483 19.489 19.488 19.490
8/28/2020 09:00 to 8:10 19.485 19.468 19.452 19.470 19.443 19.442
8/28/2020 08:00 to 7:10 19.446 19.423 19.416 19.423 19.455 19.470
8/28/2020 07:00 to 6:10 19.471 19.479 19.491 19.502 19.502 19.522
8/28/2020 06:00 to 5:10 19.533 19.542 19.540 19.544 19.544 19.563
8/28/2020 05:00 to 4:10 19.560 19.566 19.565 19.580 19.574 19.578
8/28/2020 04:00 to 3:10 19.572 19.556 19.545 19.557 19.562 19.557
8/28/2020 03:00 to 2:10 19.555 19.546 19.559 19.569 19.570 19.567
8/28/2020 02:00 to 1:10 19.563 19.558 19.572 19.575 19.583 19.615
8/28/2020 01:00 to 0:10 19.614 19.663 19.646 19.662 19.663 19.687

 

 

 

Conductivity [S/m]     6 entries per hour
Showing data from 8/29/2020 (07:50:00 Z) to 8/28/2020 (00:00:01 Z)
Previous Next [ Day | 3-Days | 7-Days ]
First Last
Prev [ Day | 3-Days | 7-Days ] Next
First Last

Start Time:     :
End Time:     :     
Time (in GMT) :00 :50 :40 :30 :20 :10
Previous Next [ Day | 3-Days | 7-Days ]
First Last
Prev [ Day | 3-Days | 7-Days ] Next
First Last


123 => good data
MM => data is determined as missing
-- => data not received/configured
Back to Top Back to Top
8/29/2020 08:00 to 7:10 -- 4.72531 4.72773 4.72616 4.72804 4.72930
8/29/2020 07:00 to 6:10 4.72806 4.72655 4.72527 4.72622 4.72486 4.72466
8/29/2020 06:00 to 5:10 4.72438 4.72626 4.72521 4.72742 4.72574 4.72418
8/29/2020 05:00 to 4:10 4.72584 4.72587 4.72728 4.72776 4.72809 4.73009
8/29/2020 04:00 to 3:10 4.73094 4.73135 4.73155 4.73112 4.73039 4.73092
8/29/2020 03:00 to 2:10 4.73158 4.73109 4.72926 4.72853 4.73082 4.73034
8/29/2020 02:00 to 1:10 4.73196 4.73171 4.73174 4.73403 4.73390 4.73193
8/29/2020 01:00 to 0:10 4.73488 4.73535 4.73695 4.73723 4.73771 4.74043
8/29/2020 00:00 to 23:10 4.74070 4.73771 4.73998 4.73839 4.73707 4.74012
8/28/2020 23:00 to 22:10 4.73852 4.74082 4.73951 4.74030 4.74424 4.74328
8/28/2020 22:00 to 21:10 4.74579 4.75346 4.75089 4.74546 4.74447 4.74211
8/28/2020 21:00 to 20:10 4.74539 4.74504 4.74693 4.74737 4.74871 4.74306
8/28/2020 20:00 to 19:10 4.75039 4.74609 4.73912 4.74327 4.74085 4.74277
8/28/2020 19:00 to 18:10 4.73770 4.73503 4.73511 4.73803 4.73246 4.73438
8/28/2020 18:00 to 17:10 4.73218 4.73072 4.73137 4.73652 4.73410 4.73023
8/28/2020 17:00 to 16:10 4.73328 4.73010 4.73166 4.73239 4.72948 4.73055
8/28/2020 16:00 to 15:10 4.73104 4.72970 4.72794 4.72856 4.72746 4.72793
8/28/2020 15:00 to 14:10 4.72518 4.72613 4.72567 4.72569 4.72642 4.72634
8/28/2020 14:00 to 13:10 4.72602 4.72442 4.72611 4.72636 4.72730 4.72831
8/28/2020 13:00 to 12:10 4.72966 4.73083 4.73094 4.73087 4.73172 4.73156
8/28/2020 12:00 to 11:10 4.73186 4.73205 4.73328 4.73200 4.73344 4.73380
8/28/2020 11:00 to 10:10 4.73326 4.73430 4.73370 4.73367 4.73415 4.73378
8/28/2020 10:00 to 9:10 4.73487 4.73608 4.73586 4.73683 4.73648 4.73681
8/28/2020 09:00 to 8:10 4.73653 4.73453 4.73290 4.73464 4.73196 4.73149
8/28/2020 08:00 to 7:10 4.73204 4.73011 4.72914 4.73011 4.73314 4.73475
8/28/2020 07:00 to 6:10 4.73493 4.73539 4.73698 4.73801 4.73838 4.74012
8/28/2020 06:00 to 5:10 4.74130 4.74230 4.74262 4.74222 4.74241 4.74444
8/28/2020 05:00 to 4:10 4.74432 4.74465 4.74435 4.74590 4.74550 4.74548
8/28/2020 04:00 to 3:10 4.74526 4.74358 4.74242 4.74408 4.74433 4.74385
8/28/2020 03:00 to 2:10 4.74372 4.74287 4.74411 4.74524 4.74527 4.74473
8/28/2020 02:00 to 1:10 4.74470 4.74420 4.74564 4.74595 4.74658 4.74960
8/28/2020 01:00 to 0:10 4.75090 4.75431 4.75308 4.75491 4.75499 4.75769

 

 

 

Salinity [psu]     6 entries per hour
Showing data from 8/29/2020 (07:50:00 Z) to 8/28/2020 (00:00:01 Z)
Previous Next [ Day | 3-Days | 7-Days ]
First Last
Prev [ Day | 3-Days | 7-Days ] Next
First Last

Start Time:     :
End Time:     :     
Time (in GMT) :00 :50 :40 :30 :20 :10
Previous Next [ Day | 3-Days | 7-Days ]
First Last
Prev [ Day | 3-Days | 7-Days ] Next
First Last


123 => good data
MM => data is determined as missing
-- => data not received/configured
Back to Top Back to Top
8/29/2020 08:00 to 7:10 -- 34.97 34.97 34.97 34.97 34.97
8/29/2020 07:00 to 6:10 34.97 34.97 34.97 34.97 34.97 34.97
8/29/2020 06:00 to 5:10 34.97 34.97 34.97 34.97 34.97 34.97
8/29/2020 05:00 to 4:10 34.97 34.97 34.97 34.97 34.97 34.97
8/29/2020 04:00 to 3:10 34.97 34.97 34.97 34.97 34.97 34.97
8/29/2020 03:00 to 2:10 34.97 34.97 34.97 34.97 34.97 34.97
8/29/2020 02:00 to 1:10 34.97 34.97 34.97 34.97 34.97 34.97
8/29/2020 01:00 to 0:10 34.97 34.97 34.97 34.97 34.97 34.97
8/29/2020 00:00 to 23:10 34.97 34.97 34.97 34.96 34.97 34.96
8/28/2020 23:00 to 22:10 34.96 34.97 34.97 34.97 34.97 34.97
8/28/2020 22:00 to 21:10 34.97 34.96 34.96 34.96 34.97 34.97
8/28/2020 21:00 to 20:10 34.97 34.96 34.97 34.97 34.96 34.97
8/28/2020 20:00 to 19:10 34.96 34.97 34.96 34.98 34.97 34.97
8/28/2020 19:00 to 18:10 34.98 34.97 34.97 34.97 34.97 34.97
8/28/2020 18:00 to 17:10 34.97 34.98 34.96 34.97 34.97 34.97
8/28/2020 17:00 to 16:10 34.97 34.97 34.98 34.97 34.96 34.96
8/28/2020 16:00 to 15:10 34.98 34.97 34.97 34.97 34.97 34.97
8/28/2020 15:00 to 14:10 34.97 34.97 34.97 34.97 34.97 34.97
8/28/2020 14:00 to 13:10 34.97 34.97 34.97 34.97 34.97 34.97
8/28/2020 13:00 to 12:10 34.97 34.97 34.97 34.97 34.97 34.97
8/28/2020 12:00 to 11:10 34.97 34.97 34.97 34.97 34.97 34.97
8/28/2020 11:00 to 10:10 34.97 34.97 34.97 34.97 34.97 34.97
8/28/2020 10:00 to 9:10 34.97 34.97 34.97 34.97 34.97 34.97
8/28/2020 09:00 to 8:10 34.97 34.97 34.97 34.97 34.97 34.97
8/28/2020 08:00 to 7:10 34.97 34.97 34.97 34.97 34.97 34.97
8/28/2020 07:00 to 6:10 34.97 34.97 34.97 34.97 34.98 34.97
8/28/2020 06:00 to 5:10 34.97 34.97 34.98 34.97 34.97 34.97
8/28/2020 05:00 to 4:10 34.98 34.97 34.97 34.97 34.97 34.97
8/28/2020 04:00 to 3:10 34.97 34.97 34.97 34.98 34.97 34.97
8/28/2020 03:00 to 2:10 34.98 34.98 34.98 34.98 34.98 34.97
8/28/2020 02:00 to 1:10 34.98 34.98 34.98 34.98 34.98 34.97
8/28/2020 01:00 to 0:10 34.99 34.97 34.98 34.98 34.98 34.98